Tinian, MP (96952)

2:59 AM ChST on January 24, 2017 (GMT +1000)
Saipan International | | Change Station
Active Advisory: Small Craft Advisory

Elev 213 ft 15.12 °N, 145.73 °E | Updated 5 minutes ago

Partly Cloudy
Partly Cloudy
77 °F
Feels Like 77 °F
N
13
Wind Variable Wind from NNE

Today
High -- | Low -- °F
--% Chance of Precip.
Yesterday
High -- | Low -- °F
Precip. -- in
Pressure 30.04 in
Visibility 10.0 miles
Clouds Few 2400 ft
Scattered Clouds 3500 ft
Mostly Cloudy 5500 ft
Dew Point 71 °F
Humidity 82%
Rainfall 0.00 in
Snow Depth Not available.
6:47 AM 6:11 PM
Waning Crescent, 17% visible
METAR PGSN 231654Z 02011KT 10SM FEW024 SCT035 BKN055 25/22 A2997 RMK AO2 SLP170 T02500217 $
Pressure 30.04 in
Visibility 10.0 miles
Clouds Few 2400 ft
Scattered Clouds 3500 ft
Mostly Cloudy 5500 ft
Dew Point 71 °F
Humidity 82%
Rainfall 0.00 in
Snow Depth Not available.
6:47 AM 6:11 PM
Waning Crescent, 17% visible
METAR PGSN 231654Z 02011KT 10SM FEW024 SCT035 BKN055 25/22 A2997 RMK AO2 SLP170 T02500217 $

Get Your Daily Forecast Email!

Thanks for signing up!

Be on the lookout for a verification email in your inbox.

You'll start receiving the daily forecast at 8 AM.

×

10-Day Weather Forecast

Almanac

Astronomy

Jan. 24, 2017 Rise Set
Actual Time
Civil Twilight
Nautical Twilight
Astronomical Twilight
Moon
Length of Visible Light
Length of Day
Tomorrow will be .
, % of the Moon is Illuminated

Today's Extremes

State Highs State Lows

Community

WunderPhotos

Upload Photos

1,962,540 photos uploaded!

WunderBlog® & News

Nearby

Air Quality

  Air Quality AQ Index Pollutant
Not available.

Snow Depth

Station Depth Elevation

Earthquake Activity

City Distance Mag. Time & Date
Minimum magnitude displayed is 2.5.

Coastal Water Temperatures

Place Temperature

Stations

Nearby Weather Stations

Station Location Temp. Windchill Dew Point Humidity Wind Precip. Elev Updated Type
                   

Watches & Warnings

Small Craft Advisory
Issued: 4:15 PM GMT Jan. 23, 2017 – National Weather Service

... Small Craft Advisory remains in effect until 6 PM Thursday...

A Small Craft Advisory remains in effect until 6 PM Thursday.

Fresh to strong winds of 20 to 25 knots with near gale gusts are
expected through Thursday. Combined seas of 9 to 12 feet could
build a bit more on Tuesday and will likely remain hazardous
through Thursday.

Precautionary/preparedness actions...

Inexperienced mariners... especially those operating smaller
vessels... should avoid sailing in these conditions.



Kleeschulte